Kezdőlap
METAR-TAF:

METAR-TAF

Repülőterek :

Kasane, Botswana

földrajzi szélesség: 17-49S, földrajzi hosszúság: 025-09E, magasság: 968 m

Jelenlegi meteorológiai megfigyelések

A jelentés 8 órával és 11 perccel ezelõtt készült, 18:00 UTC
Keleti szél 12 kt
Hőmérséklet 24°C
Páratartalom 38%
Légköri nyomás 1023 hPa
Látótávolság 10 km, vagy több
felhőtlen 1500 m magasságban, és nincs gomolyfelhõ

METAR: FBKE 221800Z 10012KT CAVOK 24/09 Q1023

Idő: 04:11 (02:11 UTC)

Előrejelzés

A jelentés 14 órával és 11 perccel ezelõtt készült, 12:00 UTC
Az előrejelzés 22-én 15 óra UTC és 22-én 24 óra UTC között érvényes
Kelet-délkeleti szél 12 kt
Látótávolság 10 km, vagy több
Szórványos felhőzet 2500 lábon

TAF: FBKE 221200Z 2215/2224 11012KT 9999 SCT025

Meteorológiai megfigyelések és előrejelzések több, mint 4000 repülőtéren (METAR és TAF jelentéseket).

A térképen piros és sárga pontok jelzik az elérhető meteorológiai állomásokat.

Mozgassa az egeret a pont fölött, hogy megjelenjen az állomás neve.

Azután kattintson az időjárási megfigyelések és előrejelzések megtekintéséhez.

A térkép megváltoztatása: kattintson a fekete keresztel jelölt zöld gombra ráközelítéshez, a vonallal jelölt zöld gombra távolításhoz, vagy a zöld nyilakra a szomszédos térképek eléréséhez.


METAR-TAF: